Medway, Ohio
Current Conditions -  °F | °C
As of 1:58 PM on Monday 22 Dec 2014 (Local Time) from KFFO Reporting Station
Overcast Overcast  
Wind Chill: 44°   Ceiling: 20000
Heat Index: 47°   Visibility: 10mi
Dew Point: 37°   Wind: 7mph
Humidity: 67%   Direction: 110°ESE
Pressure: 29.9"   Gusts: NA
Location:  39.88°N, 84.02°W
Report Text: KFFO 221858Z 11006KT 10SM FEW050 SCT100 OVC200 09/03 A2990 RMK AO2A SLP134 T00860028
Loading
Personal Weather Stations






























Interactive Weather Map New forecast layout! Learn more

10-Day Weather Forecast

Advertisements
Track Severe Weather on mobile